createdAt,value
2022-12-08T00:01:16.608Z,3.38
2022-12-08T00:04:18.313Z,3.44
2022-12-08T00:07:38.495Z,3.36
2022-12-08T00:10:49.626Z,3.37
2022-12-08T00:14:30.379Z,3.35
2022-12-08T00:17:32.163Z,3.37
2022-12-08T00:20:33.888Z,3.33
2022-12-08T00:23:35.599Z,3.32
2022-12-08T00:26:38.703Z,3.32
2022-12-08T00:29:42.609Z,3.30
2022-12-08T00:32:44.251Z,3.29
2022-12-08T00:35:45.868Z,3.31
2022-12-08T00:38:48.555Z,3.28
2022-12-08T00:42:10.355Z,3.33
2022-12-08T00:45:12.269Z,3.24
2022-12-08T00:48:13.986Z,3.32
2022-12-08T00:51:15.569Z,3.27
2022-12-08T00:54:18.127Z,3.18
2022-12-08T00:57:21.146Z,3.17
2022-12-08T01:00:22.850Z,3.11
2022-12-08T01:03:25.497Z,3.12
2022-12-08T01:06:27.308Z,3.10
2022-12-08T01:09:28.908Z,3.09
2022-12-08T01:12:31.831Z,3.06
2022-12-08T01:15:33.472Z,3.08
2022-12-08T01:18:36.088Z,3.08
2022-12-08T01:21:37.886Z,3.01
2022-12-08T01:24:39.643Z,3.00
2022-12-08T01:27:42.630Z,3.00
2022-12-08T01:30:44.254Z,3.00
2022-12-08T01:33:46.231Z,2.96
2022-12-08T01:36:47.976Z,2.96
2022-12-08T01:39:49.623Z,2.93
2022-12-08T01:42:52.664Z,2.92
2022-12-08T01:45:54.360Z,2.96
2022-12-08T01:49:03.203Z,2.91
2022-12-08T01:52:11.443Z,2.91
2022-12-08T01:55:18.380Z,2.89
2022-12-08T01:58:27.151Z,2.92
2022-12-08T02:01:29.635Z,2.92
2022-12-08T02:04:31.284Z,2.88
2022-12-08T02:07:33.432Z,2.87
2022-12-08T02:10:37.902Z,2.85
2022-12-08T02:13:43.108Z,2.90
2022-12-08T02:16:56.048Z,2.90
2022-12-08T02:20:36.209Z,2.85
2022-12-08T02:23:51.570Z,2.85
2022-12-08T02:27:12.385Z,2.77
2022-12-08T02:30:21.059Z,2.82
2022-12-08T02:33:48.938Z,2.79
2022-12-08T02:37:01.621Z,2.77
2022-12-08T02:40:11.540Z,2.76
2022-12-08T02:43:17.946Z,2.72
2022-12-08T02:46:27.132Z,2.75
2022-12-08T02:49:29.876Z,2.73
2022-12-08T02:52:44.041Z,2.83
2022-12-08T02:55:56.551Z,2.79
2022-12-08T02:59:13.844Z,2.74
2022-12-08T03:02:33.838Z,2.66
2022-12-08T03:05:49.271Z,2.67
2022-12-08T03:08:57.788Z,2.65
2022-12-08T03:12:09.789Z,2.61
2022-12-08T03:15:15.834Z,2.56
2022-12-08T03:18:21.945Z,2.61
2022-12-08T03:21:23.609Z,2.57
2022-12-08T03:24:26.931Z,2.56
2022-12-08T03:27:31.343Z,2.51
2022-12-08T03:30:38.697Z,2.61
2022-12-08T03:33:43.267Z,2.65
2022-12-08T03:36:45.758Z,2.60
2022-12-08T03:39:48.774Z,2.69
2022-12-08T03:42:50.340Z,2.58
2022-12-08T03:45:51.953Z,2.53
2022-12-08T03:48:53.719Z,2.52
2022-12-08T03:51:55.361Z,2.49
2022-12-08T03:54:58.331Z,2.54
2022-12-08T03:57:59.923Z,2.57
2022-12-08T04:01:01.672Z,2.55
2022-12-08T04:04:03.431Z,2.58
2022-12-08T04:07:05.060Z,2.63
2022-12-08T04:10:09.542Z,2.59
2022-12-08T04:13:14.079Z,2.56
2022-12-08T04:16:17.735Z,2.59
2022-12-08T04:19:19.706Z,2.56
2022-12-08T04:22:21.378Z,2.57
2022-12-08T04:25:24.495Z,2.59
2022-12-08T04:28:26.265Z,2.60
2022-12-08T04:31:28.132Z,2.57
2022-12-08T04:34:31.206Z,2.52
2022-12-08T04:37:32.934Z,2.55
2022-12-08T04:40:35.927Z,2.55
2022-12-08T04:43:37.609Z,2.47
2022-12-08T04:46:43.322Z,2.46
2022-12-08T04:49:45.472Z,2.49
2022-12-08T04:52:47.257Z,2.40
2022-12-08T04:55:50.350Z,2.38
2022-12-08T04:58:52.099Z,2.36
2022-12-08T05:01:53.935Z,2.48
2022-12-08T05:04:55.699Z,2.46
2022-12-08T05:07:57.357Z,2.38
2022-12-08T05:11:04.279Z,2.43
2022-12-08T05:14:05.864Z,2.39
2022-12-08T05:17:09.693Z,2.41
2022-12-08T05:20:12.068Z,2.46
2022-12-08T05:23:13.737Z,2.38
2022-12-08T05:26:16.710Z,2.41
2022-12-08T05:29:18.310Z,2.41
2022-12-08T05:32:20.031Z,2.45
2022-12-08T05:35:21.740Z,2.47
2022-12-08T05:38:23.471Z,2.40
2022-12-08T05:41:26.557Z,2.40
2022-12-08T05:44:28.452Z,2.38
2022-12-08T05:47:34.525Z,2.38
2022-12-08T05:50:37.856Z,2.40
2022-12-08T05:53:39.544Z,2.45
2022-12-08T05:56:42.562Z,2.43
2022-12-08T05:59:44.355Z,2.44
2022-12-08T06:02:46.136Z,2.41
2022-12-08T06:05:48.374Z,2.44
2022-12-08T06:08:50.063Z,2.41
2022-12-08T06:11:53.027Z,2.43
2022-12-08T06:14:54.666Z,2.38
2022-12-08T06:17:56.429Z,2.40
2022-12-08T06:21:02.645Z,2.32
2022-12-08T06:24:04.763Z,2.28
2022-12-08T06:27:07.971Z,2.35
2022-12-08T06:30:10.089Z,2.29
2022-12-08T06:33:11.827Z,2.33
2022-12-08T06:36:15.875Z,2.36
2022-12-08T06:39:17.574Z,2.34
2022-12-08T06:42:39.588Z,2.32
2022-12-08T06:45:41.224Z,2.31
2022-12-08T06:48:43.182Z,2.31
2022-12-08T06:51:44.799Z,2.40
2022-12-08T06:54:46.512Z,2.44
2022-12-08T06:57:51.216Z,2.41
2022-12-08T07:00:55.839Z,2.43
2022-12-08T07:03:57.667Z,2.37
2022-12-08T07:06:59.303Z,2.39
2022-12-08T07:10:00.937Z,2.41
2022-12-08T07:13:04.457Z,2.36
2022-12-08T07:16:07.907Z,2.43
2022-12-08T07:19:10.692Z,2.45
2022-12-08T07:22:12.314Z,2.45
2022-12-08T07:25:14.014Z,2.45
2022-12-08T07:28:16.990Z,2.55
2022-12-08T07:31:21.091Z,2.48
2022-12-08T07:34:23.069Z,2.55
2022-12-08T07:37:24.795Z,2.50
2022-12-08T07:40:26.503Z,2.54
2022-12-08T07:43:29.596Z,2.48
2022-12-08T07:46:31.440Z,2.51
2022-12-08T07:49:33.234Z,2.57
2022-12-08T07:52:35.515Z,2.62
2022-12-08T07:55:40.336Z,2.67
2022-12-08T07:58:45.795Z,2.72
2022-12-08T08:02:00.999Z,2.73
2022-12-08T08:05:12.265Z,2.74
2022-12-08T08:08:13.971Z,2.71
2022-12-08T08:11:20.794Z,2.69
2022-12-08T08:14:24.520Z,2.73
2022-12-08T08:17:26.307Z,2.78
2022-12-08T08:20:28.050Z,2.77
2022-12-08T08:23:30.069Z,2.76
2022-12-08T08:26:31.725Z,2.78
2022-12-08T08:29:34.780Z,2.84
2022-12-08T08:32:37.008Z,2.81
2022-12-08T08:35:38.829Z,2.82
2022-12-08T08:38:42.746Z,2.79
2022-12-08T08:41:44.508Z,2.86
2022-12-08T08:44:47.613Z,2.91
2022-12-08T08:47:49.222Z,2.99
2022-12-08T08:50:50.961Z,2.99
2022-12-08T08:53:52.562Z,3.08
2022-12-08T08:56:54.244Z,3.11
2022-12-08T08:59:57.243Z,3.00
2022-12-08T09:02:58.928Z,3.04
2022-12-08T09:06:00.706Z,3.08
2022-12-08T09:09:02.592Z,3.14
2022-12-08T09:12:05.045Z,3.10
2022-12-08T09:15:08.782Z,3.17
2022-12-08T09:18:10.503Z,3.15
2022-12-08T09:21:16.649Z,3.15
2022-12-08T09:24:18.272Z,3.15
2022-12-08T09:27:20.040Z,3.10
2022-12-08T09:30:23.239Z,3.25
2022-12-08T09:33:25.092Z,3.23
2022-12-08T09:36:27.105Z,3.31
2022-12-08T09:39:28.852Z,3.41
2022-12-08T09:42:38.611Z,3.34
2022-12-08T09:45:42.316Z,3.33
2022-12-08T09:48:49.156Z,3.41
2022-12-08T09:51:50.831Z,3.57
2022-12-08T09:54:52.550Z,3.59
2022-12-08T09:58:00.968Z,3.65
2022-12-08T10:01:04.032Z,3.58
2022-12-08T10:04:18.557Z,3.54
2022-12-08T10:07:27.163Z,3.52
2022-12-08T10:10:37.974Z,3.52
2022-12-08T10:13:46.729Z,3.64
2022-12-08T10:16:56.353Z,3.64
2022-12-08T10:20:02.224Z,3.95
2022-12-08T10:23:14.042Z,3.86
2022-12-08T10:26:18.584Z,4.02
2022-12-08T10:29:20.263Z,3.94
2022-12-08T10:32:24.639Z,4.02
2022-12-08T10:35:43.583Z,3.92
2022-12-08T10:38:45.326Z,3.99
2022-12-08T10:41:46.994Z,4.17
2022-12-08T10:45:00.672Z,4.00
2022-12-08T10:48:06.240Z,4.09
2022-12-08T10:51:22.650Z,4.08
2022-12-08T10:54:28.222Z,3.90
2022-12-08T10:57:29.848Z,4.10
2022-12-08T11:00:31.863Z,4.23
2022-12-08T11:03:44.858Z,4.20
2022-12-08T11:06:47.910Z,4.18
2022-12-08T11:09:55.243Z,4.16
2022-12-08T11:13:00.727Z,4.01
2022-12-08T11:16:06.035Z,4.13
2022-12-08T11:19:14.515Z,4.33
2022-12-08T11:22:25.009Z,4.38
2022-12-08T11:25:27.799Z,4.31
2022-12-08T11:28:29.477Z,4.39
2022-12-08T11:31:39.955Z,4.53
2022-12-08T11:34:48.045Z,4.50
2022-12-08T11:37:49.921Z,4.49
2022-12-08T11:40:55.321Z,4.67
2022-12-08T11:44:04.618Z,4.53
2022-12-08T11:47:12.536Z,4.54
2022-12-08T11:50:22.755Z,4.71
2022-12-08T11:53:30.270Z,4.79
2022-12-08T11:56:34.801Z,4.76
2022-12-08T11:59:41.755Z,4.83
2022-12-08T12:02:48.799Z,4.58
2022-12-08T12:06:37.776Z,4.63
2022-12-08T12:09:43.723Z,4.68
2022-12-08T12:12:59.323Z,4.57
2022-12-08T12:16:28.337Z,4.62
2022-12-08T12:19:34.328Z,4.51
2022-12-08T12:27:27.849Z,4.65
2022-12-08T12:30:49.054Z,4.63
2022-12-08T12:33:51.854Z,4.71
2022-12-08T12:36:56.611Z,4.73
2022-12-08T12:40:01.232Z,4.45
2022-12-08T12:43:23.999Z,4.59
2022-12-08T12:46:53.449Z,4.67
2022-12-08T12:50:37.850Z,4.57
2022-12-08T12:53:50.711Z,4.68
2022-12-08T12:56:54.229Z,4.70
2022-12-08T13:00:18.950Z,4.56
2022-12-08T13:03:20.710Z,4.62
2022-12-08T13:06:32.106Z,4.83
2022-12-08T13:09:36.980Z,4.79
2022-12-08T13:12:38.788Z,4.68
2022-12-08T13:15:49.446Z,4.64
2022-12-08T13:18:56.088Z,4.54
2022-12-08T13:21:58.679Z,4.54
2022-12-08T13:25:36.840Z,4.59
2022-12-08T13:29:16.398Z,4.64
2022-12-08T13:33:16.799Z,4.71
2022-12-08T13:36:19.732Z,4.78
2022-12-08T13:39:26.836Z,4.65
2022-12-08T13:42:35.561Z,4.66
2022-12-08T13:46:31.820Z,4.65
2022-12-08T13:56:59.554Z,4.65
2022-12-08T13:59:30.254Z,4.64
2022-12-08T14:02:37.858Z,4.59
2022-12-08T14:06:11.094Z,4.54
2022-12-08T14:09:11.412Z,4.48
2022-12-08T14:12:19.528Z,4.47
2022-12-08T14:15:21.656Z,4.48
2022-12-08T14:18:25.503Z,4.52
2022-12-08T14:21:34.433Z,4.46
2022-12-08T14:24:40.269Z,4.40
2022-12-08T14:27:42.281Z,4.36
2022-12-08T14:30:44.403Z,4.25
2022-12-08T14:33:49.369Z,4.26
2022-12-08T14:36:55.122Z,4.28
2022-12-08T14:40:05.163Z,4.21
2022-12-08T14:43:15.068Z,4.16
2022-12-08T14:46:21.438Z,4.16
2022-12-08T14:49:33.779Z,4.13
2022-12-08T14:52:42.945Z,4.09
2022-12-08T14:55:47.764Z,4.05
2022-12-08T14:59:01.344Z,3.94
2022-12-08T15:02:13.360Z,3.93
2022-12-08T15:05:17.975Z,3.94
2022-12-08T15:08:19.921Z,3.93
2022-12-08T15:11:31.560Z,3.92
2022-12-08T15:14:34.801Z,3.93
2022-12-08T15:17:42.420Z,3.88
2022-12-08T15:20:46.820Z,3.82
2022-12-08T15:23:50.423Z,3.69
2022-12-08T15:26:53.870Z,3.57
2022-12-08T15:29:55.625Z,3.53
2022-12-08T15:32:57.379Z,3.50
2022-12-08T15:35:59.145Z,3.43
2022-12-08T15:39:01.155Z,3.41
2022-12-08T15:42:11.118Z,3.39
2022-12-08T15:45:13.776Z,3.43
2022-12-08T15:48:21.098Z,3.48
2022-12-08T15:51:22.785Z,3.54
2022-12-08T15:54:24.419Z,3.59
2022-12-08T16:00:55.436Z,3.59
2022-12-08T16:07:22.877Z,3.60
2022-12-08T16:10:35.435Z,3.62
2022-12-08T16:15:38.727Z,3.61
2022-12-08T16:46:57.731Z,3.65
2022-12-08T16:50:01.483Z,3.62
2022-12-08T16:53:28.053Z,3.65
2022-12-08T16:56:43.225Z,3.61
2022-12-08T16:59:48.425Z,3.57
2022-12-08T17:02:52.461Z,3.59
2022-12-08T17:05:54.398Z,3.64
2022-12-08T17:08:56.338Z,3.61
2022-12-08T17:12:03.441Z,3.62
2022-12-08T17:15:08.251Z,3.61
2022-12-08T17:18:12.250Z,3.55
2022-12-08T17:21:15.928Z,3.57
2022-12-08T17:24:22.138Z,3.57
2022-12-08T17:27:24.310Z,3.57
2022-12-08T17:30:26.177Z,3.60
2022-12-08T17:33:29.361Z,3.54
2022-12-08T17:36:31.563Z,3.52
2022-12-08T17:39:33.623Z,3.52
2022-12-08T17:42:38.307Z,3.52
2022-12-08T17:45:42.517Z,3.57
2022-12-08T17:48:45.911Z,3.57
2022-12-08T17:51:48.633Z,3.58
2022-12-08T17:54:50.386Z,3.55
2022-12-08T17:57:52.085Z,3.57
2022-12-08T18:00:54.224Z,3.54
2022-12-08T18:03:57.969Z,3.49
2022-12-08T18:07:01.332Z,3.49
2022-12-08T18:10:04.304Z,3.42
2022-12-08T18:13:06.344Z,3.41
2022-12-08T18:16:08.484Z,3.47
2022-12-08T18:19:13.521Z,3.51
2022-12-08T18:22:16.360Z,3.48
2022-12-08T18:25:18.324Z,3.50
2022-12-08T18:28:20.041Z,3.49
2022-12-08T18:31:23.193Z,3.48
2022-12-08T18:34:26.352Z,3.47
2022-12-08T18:37:28.101Z,3.39
2022-12-08T18:40:29.825Z,3.37
2022-12-08T18:43:31.704Z,3.36
2022-12-08T18:46:33.418Z,3.38
2022-12-08T18:49:36.549Z,3.41
2022-12-08T18:52:38.377Z,3.38
2022-12-08T18:55:40.074Z,3.40
2022-12-08T18:58:41.964Z,3.37
2022-12-08T19:01:43.754Z,3.43
2022-12-08T19:04:46.987Z,3.37
2022-12-08T19:07:48.904Z,3.34
2022-12-08T19:10:50.840Z,3.40
2022-12-08T19:13:53.862Z,3.35
2022-12-08T19:16:56.253Z,3.33
2022-12-08T19:19:59.547Z,3.34
2022-12-08T19:23:01.216Z,3.33
2022-12-08T19:26:03.901Z,3.34
2022-12-08T19:29:05.648Z,3.27
2022-12-08T19:32:07.536Z,3.26
2022-12-08T19:35:11.219Z,3.37
2022-12-08T19:38:13.666Z,3.31
2022-12-08T19:41:33.900Z,3.27
2022-12-08T19:44:54.257Z,3.27
2022-12-08T19:47:56.116Z,3.31
2022-12-08T19:51:00.087Z,3.21
2022-12-08T19:54:02.585Z,3.20
2022-12-08T19:57:04.566Z,3.25
2022-12-08T20:00:08.967Z,3.20
2022-12-08T20:03:15.297Z,3.16
2022-12-08T20:06:18.923Z,3.22
2022-12-08T20:09:21.315Z,3.23
2022-12-08T20:12:23.011Z,3.14
2022-12-08T20:15:24.978Z,3.16
2022-12-08T20:18:28.515Z,3.13
2022-12-08T20:21:31.637Z,3.11
2022-12-08T20:24:33.457Z,3.10
2022-12-08T20:27:35.208Z,2.98
2022-12-08T20:30:38.877Z,2.91
2022-12-08T20:33:40.833Z,2.75
2022-12-08T20:36:44.391Z,2.69
2022-12-08T20:39:46.122Z,2.66
2022-12-08T20:42:48.017Z,2.49
2022-12-08T20:45:49.889Z,2.34
2022-12-08T20:48:51.680Z,2.27
2022-12-08T20:51:54.804Z,2.16
2022-12-08T20:54:57.640Z,2.03
2022-12-08T20:57:59.400Z,2.06
2022-12-08T21:01:01.239Z,1.95
2022-12-08T21:04:03.374Z,1.90
2022-12-08T21:07:08.895Z,1.81
2022-12-08T21:10:11.376Z,1.79
2022-12-08T21:13:13.392Z,1.74
2022-12-08T21:16:16.052Z,1.74
2022-12-08T21:19:19.786Z,1.77
2022-12-08T21:22:22.970Z,1.82
2022-12-08T21:25:24.921Z,1.81
2022-12-08T21:28:27.376Z,1.92
2022-12-08T21:31:31.809Z,1.95
2022-12-08T21:34:34.399Z,2.10
2022-12-08T21:37:39.997Z,2.18
2022-12-08T21:40:42.982Z,2.20
2022-12-08T21:43:45.003Z,2.34
2022-12-08T21:46:47.368Z,2.36
2022-12-08T21:49:49.191Z,2.41
2022-12-08T21:52:52.351Z,2.46
2022-12-08T21:55:54.066Z,2.39
2022-12-08T21:58:55.909Z,2.48
2022-12-08T22:01:58.064Z,2.50
2022-12-08T22:05:00.197Z,2.56
2022-12-08T22:08:04.046Z,2.41
2022-12-08T22:11:06.388Z,2.33
2022-12-08T22:14:14.123Z,2.34
2022-12-08T22:17:18.724Z,2.33
2022-12-08T22:20:20.723Z,2.33
2022-12-08T22:23:23.981Z,2.32
2022-12-08T22:26:25.966Z,2.38
2022-12-08T22:29:28.119Z,2.22
2022-12-08T22:32:30.464Z,2.11
2022-12-08T22:35:32.371Z,2.12
2022-12-08T22:38:36.570Z,2.16
2022-12-08T22:41:38.343Z,2.23
2022-12-08T22:44:40.026Z,2.21
2022-12-08T22:47:41.713Z,2.14
2022-12-08T22:50:43.735Z,2.26
2022-12-08T22:53:47.407Z,2.34
2022-12-08T22:56:49.268Z,2.38
2022-12-08T22:59:50.913Z,2.34
2022-12-08T23:02:52.744Z,2.32
2022-12-08T23:05:54.708Z,2.37
2022-12-08T23:08:58.136Z,2.38
2022-12-08T23:11:59.872Z,2.35
2022-12-08T23:15:01.992Z,2.36
2022-12-08T23:18:04.298Z,2.22
2022-12-08T23:21:09.124Z,2.26
2022-12-08T23:24:12.315Z,2.34
2022-12-08T23:27:14.661Z,2.40
2022-12-08T23:30:16.833Z,2.42
2022-12-08T23:33:18.957Z,2.43
2022-12-08T23:36:22.724Z,2.38
2022-12-08T23:39:25.816Z,2.37
2022-12-08T23:42:29.157Z,2.30
2022-12-08T23:45:31.018Z,2.23
2022-12-08T23:48:34.665Z,2.23
2022-12-08T23:51:36.817Z,2.16
2022-12-08T23:54:40.484Z,2.00
2022-12-08T23:57:42.469Z,1.90
